»·PEaware :: CGVZB KAMA-KELP

CGVZB :: KAMA-KELP

FLIGHT INFORMATION

Flight Status: Arrived
Operator: Unknown
More flights by this operator :: More flights under this callsign
Pilot: Alan S. (10569)
Aircraft: DEHAVILLAND DASH 8 400
(DH8D)
More flights by this aircraft type
Origin: KAMA Amarillo Intl
United States
Destination: KELP El Paso Intl
United States
More flights between these airports :: More routes between these airports
Route: PNH V280 CME SAMMR3
File this flight plan on PilotEdge
Remarks:
Altitude:
(Current/Filed)
24,000ft
Speed:
(Current/Filed)
385kts
Departed: 08-Jul-17 07:13 PM
Arrived: 08-Jul-17 08:18 PM
Distance/Time
Traveled:
311nm/1:05
Distance/Time
To Go:
Arrived

Flight Plot

Page will automatically refresh every two minutes.

Flight plan parsing failed; only flown route is shown


Map Options




Map Legend


Flown Route
Filed Route
Departure Airport
Arrival Airport
Navaid (VOR, NDB)
Fix

Horizontal Profiles

Position Reports

Time Latitude Longitude Heading Altitude Ground
Speed
08-Jul-17 18:41 35.219653 -101.705434 95 3614ft 0kts
08-Jul-17 18:42 35.219653 -101.705434 95 3614ft 0kts
08-Jul-17 18:43 35.219653 -101.705434 95 3614ft 0kts
08-Jul-17 18:44 35.219653 -101.705434 95 3614ft 0kts
08-Jul-17 18:45 35.219653 -101.705434 95 3614ft 0kts
08-Jul-17 18:46 35.219653 -101.705434 95 3614ft 0kts
08-Jul-17 18:47 35.219653 -101.705434 95 3614ft 0kts
08-Jul-17 18:48 35.219653 -101.705434 95 3614ft 0kts
08-Jul-17 18:49 35.219653 -101.705434 95 3614ft 0kts
08-Jul-17 18:50 35.219653 -101.705434 95 3614ft 0kts
08-Jul-17 18:51 35.219653 -101.705434 95 3614ft 0kts
08-Jul-17 18:52 35.219653 -101.705434 95 3614ft 0kts
08-Jul-17 18:53 35.219653 -101.705434 95 3614ft 0kts
08-Jul-17 18:54 35.219653 -101.705434 95 3614ft 0kts
08-Jul-17 18:55 35.219653 -101.705434 95 3614ft 0kts
08-Jul-17 18:56 35.219653 -101.705434 95 3614ft 0kts
08-Jul-17 18:57 35.219653 -101.705434 95 3614ft 0kts
08-Jul-17 18:58 35.219653 -101.705434 95 3614ft 0kts
08-Jul-17 18:59 35.219653 -101.705434 95 3614ft 0kts
08-Jul-17 19:00 35.219653 -101.705434 95 3614ft 0kts
08-Jul-17 19:01 35.219653 -101.705434 95 3614ft 0kts
08-Jul-17 19:02 35.219653 -101.705434 95 3614ft 0kts
08-Jul-17 19:03 35.219653 -101.705434 95 3614ft 0kts
08-Jul-17 19:04 35.219653 -101.705434 95 3614ft 0kts
08-Jul-17 19:05 35.219653 -101.705434 95 3614ft 0kts
08-Jul-17 19:06 35.219653 -101.705434 95 3614ft 0kts
08-Jul-17 19:07 35.219653 -101.705434 95 3614ft 0kts
08-Jul-17 19:08 35.219653 -101.705434 95 3614ft 0kts
08-Jul-17 19:09 35.219653 -101.705434 95 3614ft 0kts
08-Jul-17 19:10 35.221570 -101.704785 18 3614ft 19kts
08-Jul-17 19:11 35.224720 -101.702791 43 3614ft 15kts
08-Jul-17 19:12 35.227344 -101.699448 47 3614ft 12kts
08-Jul-17 19:13 35.229846 -101.699212 316 3614ft 0kts
08-Jul-17 19:14 35.229846 -101.699212 316 3614ft 0kts
08-Jul-17 19:15 35.230391 -101.700778 233 3614ft 20kts
08-Jul-17 19:16 35.208282 -101.728757 225 4614ft 156kts
08-Jul-17 19:17 35.174129 -101.771018 225 6584ft 197kts
08-Jul-17 19:18 35.143463 -101.828098 246 8744ft 218kts
08-Jul-17 19:19 35.117740 -101.899147 244 10667ft 245kts
08-Jul-17 19:20 35.086361 -101.976864 243 12363ft 273kts
08-Jul-17 19:21 35.050996 -102.062066 238 13936ft 294kts
08-Jul-17 19:22 34.979177 -102.107735 222 15466ft 305kts
08-Jul-17 19:23 34.922810 -102.185659 230 16987ft 312kts
08-Jul-17 19:24 34.879166 -102.252334 231 17985ft 318kts
08-Jul-17 19:25 34.824999 -102.335698 231 19118ft 323kts
08-Jul-17 19:26 34.769273 -102.421332 231 20141ft 328kts
08-Jul-17 19:27 34.712592 -102.508232 231 21046ft 332kts
08-Jul-17 19:28 34.655482 -102.595568 231 21836ft 335kts
08-Jul-17 19:29 34.598917 -102.681862 230 22526ft 338kts
08-Jul-17 19:30 34.540630 -102.770560 230 23154ft 340kts
08-Jul-17 19:31 34.477770 -102.854601 219 23675ft 342kts
08-Jul-17 19:32 34.403988 -102.925448 217 24144ft 344kts
08-Jul-17 19:33 34.328750 -102.996213 217 24587ft 345kts
08-Jul-17 19:34 34.252346 -103.067835 218 24302ft 347kts
08-Jul-17 19:35 34.178528 -103.136838 219 24299ft 334kts
08-Jul-17 19:36 34.105483 -103.205003 220 24300ft 334kts
08-Jul-17 19:37 34.032548 -103.273026 220 24301ft 334kts
08-Jul-17 19:38 33.959434 -103.340945 219 24282ft 334kts
08-Jul-17 19:39 33.888437 -103.406798 220 24300ft 334kts
08-Jul-17 19:40 33.821156 -103.479718 240 24312ft 329kts
08-Jul-17 19:41 33.778154 -103.575764 244 24300ft 329kts
08-Jul-17 19:42 33.737924 -103.672058 244 24303ft 329kts
08-Jul-17 19:43 33.697358 -103.769388 244 24268ft 331kts
08-Jul-17 19:44 33.656259 -103.867740 244 24223ft 332kts
08-Jul-17 19:45 33.614932 -103.966347 244 24192ft 332kts
08-Jul-17 19:46 33.573699 -104.064462 244 24191ft 332kts
08-Jul-17 19:47 33.532275 -104.162752 244 24191ft 331kts
08-Jul-17 19:48 33.490936 -104.260565 244 24191ft 331kts
08-Jul-17 19:49 33.449569 -104.358163 244 24191ft 331kts
08-Jul-17 19:50 33.408004 -104.455938 244 24190ft 331kts
08-Jul-17 19:51 33.366664 -104.552908 244 24190ft 331kts
08-Jul-17 19:52 33.312300 -104.639304 220 24197ft 334kts
08-Jul-17 19:53 33.238252 -104.703239 216 24193ft 336kts
08-Jul-17 19:54 33.162058 -104.766345 216 24193ft 336kts
08-Jul-17 19:55 33.085296 -104.830153 212 24181ft 340kts
08-Jul-17 19:56 33.007358 -104.893707 213 24179ft 346kts
08-Jul-17 19:57 32.928553 -104.958422 213 24223ft 347kts
08-Jul-17 19:58 32.852395 -105.020830 213 24213ft 350kts
08-Jul-17 19:59 32.773185 -105.085567 213 24157ft 352kts
08-Jul-17 20:00 32.692098 -105.149420 210 24159ft 352kts
08-Jul-17 20:01 32.608730 -105.209061 209 24168ft 352kts
08-Jul-17 20:02 32.525915 -105.268076 209 23740ft 346kts
08-Jul-17 20:03 32.444307 -105.326091 209 22575ft 342kts
08-Jul-17 20:04 32.363324 -105.383545 209 20920ft 347kts
08-Jul-17 20:05 32.281849 -105.441261 209 19493ft 341kts
08-Jul-17 20:06 32.201990 -105.497696 209 18197ft 333kts
08-Jul-17 20:07 32.126077 -105.557744 217 16905ft 328kts
08-Jul-17 20:08 32.056809 -105.625299 218 15616ft 323kts
08-Jul-17 20:09 31.989981 -105.691024 217 14363ft 318kts
08-Jul-17 20:10 31.940346 -105.775181 236 13159ft 310kts
08-Jul-17 20:11 31.897545 -105.857695 236 11936ft 295kts
08-Jul-17 20:12 31.872715 -105.946514 263 10235ft 298kts
08-Jul-17 20:13 31.867945 -106.043528 265 8457ft 298kts
08-Jul-17 20:14 31.864213 -106.131050 265 7952ft 253kts
08-Jul-17 20:15 31.860971 -106.212724 265 7989ft 256kts
08-Jul-17 20:16 31.857689 -106.296151 265 7350ft 252kts
08-Jul-17 20:17 31.854634 -106.376192 266 6227ft 240kts
08-Jul-17 20:18 31.836485 -106.439594 182 5431ft 199kts
08-Jul-17 20:19 31.803186 -106.415253 93 4592ft 163kts
08-Jul-17 20:20 31.801323 -106.374267 95 3965ft 65kts
08-Jul-17 20:21 31.799022 -106.371689 244 3965ft 17kts
08-Jul-17 20:22 31.798519 -106.375817 198 3965ft 5kts
08-Jul-17 20:23 31.798364 -106.376077 257 3964ft 0kts
08-Jul-17 20:24 31.798364 -106.376077 257 3964ft 0kts
08-Jul-17 20:25 31.798364 -106.376077 257 3964ft 0kts
08-Jul-17 20:26 31.798364 -106.376077 257 3964ft 0kts
08-Jul-17 20:27 31.798364 -106.376077 257 3964ft 0kts
08-Jul-17 20:28 31.798364 -106.376077 257 3964ft 0kts
08-Jul-17 20:29 31.798364 -106.376077 257 3964ft 0kts
08-Jul-17 20:30 31.798364 -106.376077 257 3964ft 0kts
08-Jul-17 20:31 31.798364 -106.376077 257 3964ft 0kts
08-Jul-17 20:32 31.798364 -106.376077 257 3964ft 0kts
08-Jul-17 20:33 31.798364 -106.376077 257 3964ft 0kts

Navigation Log

Ident Type
Flight plan parsing failed, navigation log unavailable